createdAt,value
2023-04-01T00:00:33.080Z,98907.53
2023-04-01T00:05:34.687Z,98914.16
2023-04-01T00:10:36.358Z,98902.13
2023-04-01T00:15:39.021Z,98906.25
2023-04-01T00:20:45.455Z,98911.03
2023-04-01T00:25:47.787Z,98900.06
2023-04-01T00:30:49.593Z,98901.00
2023-04-01T00:35:51.448Z,98891.59
2023-04-01T00:40:58.415Z,98903.63
2023-04-01T00:46:00.115Z,98900.19
2023-04-01T00:51:07.303Z,98903.31
2023-04-01T00:56:22.315Z,98883.16
2023-04-01T01:01:25.455Z,98894.00
2023-04-01T01:06:30.327Z,98893.13
2023-04-01T01:11:51.384Z,98884.50
2023-04-01T01:16:59.268Z,98883.47
2023-04-01T01:22:40.419Z,98880.00
2023-04-01T01:27:55.490Z,98878.47
2023-04-01T01:33:06.296Z,98883.41
2023-04-01T01:38:12.540Z,98878.63
2023-04-01T01:43:21.509Z,98868.03
2023-04-01T01:48:25.628Z,98878.84
2023-04-01T01:53:27.248Z,98875.53
2023-04-01T01:58:41.837Z,98877.13
2023-04-01T02:03:46.834Z,98869.91
2023-04-01T02:08:53.526Z,98878.84
2023-04-01T02:13:57.070Z,98869.34
2023-04-01T02:19:00.572Z,98876.38
2023-04-01T02:24:07.840Z,98879.59
2023-04-01T02:29:12.569Z,98855.34
2023-04-01T02:34:14.717Z,98878.50
2023-04-01T02:39:16.629Z,98880.25
2023-04-01T02:44:18.490Z,98876.47
2023-04-01T02:49:20.433Z,98876.34
2023-04-01T02:54:22.155Z,98880.13
2023-04-01T02:59:23.797Z,98868.50
2023-04-01T03:04:25.962Z,98857.78
2023-04-01T03:09:27.743Z,98856.41
2023-04-01T03:14:29.434Z,98857.44
2023-04-01T03:19:31.817Z,98854.38
2023-04-01T03:24:35.087Z,98862.44
2023-04-01T03:29:37.213Z,98865.19
2023-04-01T03:34:39.225Z,98872.94
2023-04-01T03:39:42.493Z,98863.84
2023-04-01T03:44:45.197Z,98869.66
2023-04-01T03:49:47.478Z,98868.84
2023-04-01T03:54:49.086Z,98877.97
2023-04-01T03:59:51.186Z,98868.25
2023-04-01T04:04:52.786Z,98878.63
2023-04-01T04:09:54.594Z,98872.91
2023-04-01T04:14:56.476Z,98880.28
2023-04-01T04:19:58.517Z,98882.22
2023-04-01T04:25:00.267Z,98886.88
2023-04-01T04:30:02.424Z,98886.09
2023-04-01T04:35:05.935Z,98886.31
2023-04-01T04:40:08.969Z,98880.53
2023-04-01T04:45:11.519Z,98879.59
2023-04-01T04:50:17.185Z,98893.31
2023-04-01T04:55:19.014Z,98885.38
2023-04-01T05:00:25.463Z,98892.53
2023-04-01T05:05:34.895Z,98895.06
2023-04-01T05:10:38.502Z,98901.88
2023-04-01T05:15:41.709Z,98903.34
2023-04-01T05:20:50.779Z,98905.19
2023-04-01T05:25:52.818Z,98916.25
2023-04-01T05:30:55.420Z,98925.47
2023-04-01T05:36:17.061Z,98928.88
2023-04-01T05:41:18.752Z,98922.50
2023-04-01T05:46:21.680Z,98918.53
2023-04-01T05:51:29.746Z,98927.63
2023-04-01T05:56:31.689Z,98934.56
2023-04-01T06:01:34.797Z,98935.38
2023-04-01T06:06:37.248Z,98938.91
2023-04-01T06:11:50.260Z,98944.72
2023-04-01T06:16:54.805Z,98948.28
2023-04-01T06:22:15.085Z,98950.44
2023-04-01T06:27:54.196Z,98963.53
2023-04-01T06:33:33.621Z,98964.22
2023-04-01T06:39:04.223Z,98972.88
2023-04-01T06:44:24.602Z,98969.69
2023-04-01T06:50:17.098Z,98972.41
2023-04-01T06:56:05.379Z,98977.19
2023-04-01T07:01:32.907Z,98987.09
2023-04-01T07:06:58.474Z,98978.53
2023-04-01T07:12:24.289Z,98991.50
2023-04-01T07:17:47.407Z,98979.31
2023-04-01T07:22:57.237Z,98987.31
2023-04-01T07:28:17.908Z,98990.88
2023-04-01T07:33:34.812Z,98993.03
2023-04-01T07:39:05.170Z,99003.75
2023-04-01T07:45:00.105Z,99011.19
2023-04-01T07:50:27.123Z,99017.22
2023-04-01T07:56:05.460Z,99014.03
2023-04-01T08:02:02.186Z,99023.97
2023-04-01T08:07:26.407Z,99036.41
2023-04-01T08:12:57.843Z,99040.38
2023-04-01T08:18:38.676Z,99049.63
2023-04-01T08:23:47.077Z,99051.91
2023-04-01T08:29:09.463Z,99065.56
2023-04-01T08:34:22.307Z,99066.72
2023-04-01T08:39:30.145Z,99074.00
2023-04-01T08:44:51.271Z,99077.09
2023-04-01T08:49:53.246Z,99077.31
2023-04-01T08:55:26.981Z,99089.31
2023-04-01T09:01:12.637Z,99098.44
2023-04-01T09:06:36.803Z,99099.69
2023-04-01T09:12:13.606Z,99100.16
2023-04-01T09:17:22.466Z,99103.81
2023-04-01T09:22:49.618Z,99109.16
2023-04-01T09:28:02.652Z,99119.56
2023-04-01T09:33:23.861Z,99133.81
2023-04-01T09:38:37.809Z,99129.13
2023-04-01T09:44:13.893Z,99143.59
2023-04-01T09:50:08.148Z,99149.53
2023-04-01T09:55:09.791Z,99148.16
2023-04-01T10:00:27.259Z,99161.41
2023-04-01T10:06:10.482Z,99158.00
2023-04-01T10:11:31.083Z,99168.38
2023-04-01T10:16:48.487Z,99171.69
2023-04-01T10:22:21.407Z,99179.56
2023-04-01T10:27:41.976Z,99187.72
2023-04-01T10:33:42.916Z,99185.13
2023-04-01T10:39:05.010Z,99184.63
2023-04-01T10:44:22.245Z,99187.84
2023-04-01T10:49:43.190Z,99196.19
2023-04-01T10:55:22.644Z,99201.22
2023-04-01T11:01:24.962Z,99206.75
2023-04-01T11:07:22.577Z,99211.66
2023-04-01T11:12:39.515Z,99209.53
2023-04-01T11:18:12.588Z,99212.88
2023-04-01T11:23:17.353Z,99216.09
2023-04-01T11:28:37.085Z,99228.56
2023-04-01T11:33:57.602Z,99232.16
2023-04-01T11:39:13.111Z,99238.38
2023-04-01T11:44:37.207Z,99244.25
2023-04-01T11:49:52.608Z,99244.56
2023-04-01T11:55:11.410Z,99254.91
2023-04-01T12:00:25.086Z,99253.97
2023-04-01T12:05:38.497Z,99268.84
2023-04-01T12:10:49.832Z,99272.56
2023-04-01T12:16:22.493Z,99271.00
2023-04-01T12:21:39.016Z,99283.28
2023-04-01T12:26:40.453Z,99291.69
2023-04-01T12:32:07.539Z,99295.50
2023-04-01T12:37:54.341Z,99300.66
2023-04-01T12:43:14.560Z,99310.16
2023-04-01T12:48:40.921Z,99298.09
2023-04-01T12:54:03.229Z,99300.50
2023-04-01T12:59:25.146Z,99308.28
2023-04-01T13:04:45.069Z,99320.34
2023-04-01T13:10:35.263Z,99331.94
2023-04-01T13:15:47.093Z,99324.66
2023-04-01T13:21:17.473Z,99339.44
2023-04-01T13:26:28.183Z,99335.97
2023-04-01T13:31:53.869Z,99338.59
2023-04-01T13:37:05.961Z,99344.63
2023-04-01T13:42:14.575Z,99351.16
2023-04-01T13:47:25.389Z,99356.59
2023-04-01T13:52:55.955Z,99354.25
2023-04-01T13:58:09.452Z,99364.19
2023-04-01T14:03:32.268Z,99371.22
2023-04-01T14:08:55.369Z,99373.13
2023-04-01T14:14:14.498Z,99369.63
2023-04-01T14:19:40.251Z,99386.81
2023-04-01T14:24:41.728Z,99387.13
2023-04-01T14:29:43.309Z,99386.53
2023-04-01T14:35:03.974Z,99391.03
2023-04-01T14:40:23.051Z,99402.31
2023-04-01T14:45:54.810Z,99409.88
2023-04-01T14:51:04.162Z,99400.81
2023-04-01T14:56:13.117Z,99420.63
2023-04-01T15:01:51.447Z,99414.34
2023-04-01T15:07:08.084Z,99423.94
2023-04-01T15:12:12.685Z,99420.41
2023-04-01T15:17:45.756Z,99431.97
2023-04-01T15:23:02.809Z,99437.78
2023-04-01T15:28:04.349Z,99446.69
2023-04-01T15:33:26.441Z,99464.97
2023-04-01T15:39:04.365Z,99463.16
2023-04-01T15:44:31.684Z,99467.06
2023-04-01T15:49:43.253Z,99483.75
2023-04-01T15:54:56.749Z,99481.25
2023-04-01T16:00:07.417Z,99493.78
2023-04-01T16:05:20.145Z,99491.88
2023-04-01T16:10:34.775Z,99492.19
2023-04-01T16:16:16.804Z,99506.25
2023-04-01T16:21:45.307Z,99511.75
2023-04-01T16:27:05.316Z,99516.91
2023-04-01T16:32:18.364Z,99526.16
2023-04-01T16:37:30.936Z,99527.97
2023-04-01T16:42:51.652Z,99519.16
2023-04-01T16:47:58.834Z,99535.06
2023-04-01T16:53:11.424Z,99549.59
2023-04-01T16:58:24.771Z,99555.34
2023-04-01T17:03:36.035Z,99563.94
2023-04-01T17:09:05.748Z,99567.78
2023-04-01T17:14:13.456Z,99579.53
2023-04-01T17:19:58.741Z,99584.44
2023-04-01T17:25:00.888Z,99595.69
2023-04-01T17:30:27.142Z,99603.81
2023-04-01T17:35:50.846Z,99611.41
2023-04-01T17:40:55.800Z,99611.81
2023-04-01T17:46:23.447Z,99614.88
2023-04-01T17:51:54.293Z,99626.88
2023-04-01T17:57:23.452Z,99639.91
2023-04-01T18:02:48.406Z,99645.53
2023-04-01T18:08:26.613Z,99647.63
2023-04-01T18:13:34.234Z,99664.91
2023-04-01T18:18:46.878Z,99666.31
2023-04-01T18:24:02.385Z,99668.56
2023-04-01T18:29:22.737Z,99683.13
2023-04-01T18:34:42.620Z,99688.94
2023-04-01T18:39:53.195Z,99701.66
2023-04-01T18:45:09.677Z,99708.34
2023-04-01T18:50:35.762Z,99712.03
2023-04-01T18:55:51.552Z,99723.56
2023-04-01T19:00:53.025Z,99732.44
2023-04-01T19:05:57.587Z,99740.28
2023-04-01T19:11:17.446Z,99744.53
2023-04-01T19:16:36.980Z,99753.44
2023-04-01T19:21:43.319Z,99755.81
2023-04-01T19:27:06.211Z,99763.28
2023-04-01T19:32:13.771Z,99766.72
2023-04-01T19:37:29.253Z,99774.22
2023-04-01T19:42:44.911Z,99773.59
2023-04-01T19:47:58.379Z,99773.91
2023-04-01T19:53:22.774Z,99785.16
2023-04-01T19:58:34.218Z,99784.41
2023-04-01T20:03:35.713Z,99796.47
2023-04-01T20:09:05.395Z,99801.56
2023-04-01T20:14:49.545Z,99802.75
2023-04-01T20:20:01.497Z,99811.41
2023-04-01T20:25:13.060Z,99819.88
2023-04-01T20:30:28.268Z,99836.84
2023-04-01T20:35:37.384Z,99835.81
2023-04-01T20:40:46.378Z,99840.25
2023-04-01T20:45:47.935Z,99841.25
2023-04-01T20:50:58.651Z,99841.69
2023-04-01T20:56:28.977Z,99852.75
2023-04-01T21:01:33.302Z,99856.78
2023-04-01T21:07:00.543Z,99855.59
2023-04-01T21:12:01.975Z,99857.19
2023-04-01T21:17:18.594Z,99868.91
2023-04-01T21:22:38.176Z,99863.88
2023-04-01T21:27:51.711Z,99879.19
2023-04-01T21:33:11.847Z,99880.00
2023-04-01T21:38:13.384Z,99882.00
2023-04-01T21:43:33.341Z,99894.50
2023-04-01T21:48:48.338Z,99900.16
2023-04-01T21:54:05.126Z,99893.28
2023-04-01T21:59:31.708Z,99907.41
2023-04-01T22:04:53.696Z,99914.66
2023-04-01T22:10:28.911Z,99919.91
2023-04-01T22:15:45.864Z,99921.13
2023-04-01T22:20:51.595Z,99926.97
2023-04-01T22:26:11.241Z,99933.78
2023-04-01T22:31:17.659Z,99937.81
2023-04-01T22:36:25.331Z,99945.91
2023-04-01T22:41:54.600Z,99942.66
2023-04-01T22:47:12.862Z,99953.75
2023-04-01T22:52:34.628Z,99949.13
2023-04-01T22:57:58.010Z,99961.63
2023-04-01T23:03:03.114Z,99961.22
2023-04-01T23:08:26.846Z,99972.91
2023-04-01T23:14:00.820Z,99980.38
2023-04-01T23:19:18.880Z,99984.00
2023-04-01T23:25:13.935Z,99989.03
2023-04-01T23:30:40.600Z,100004.16
2023-04-01T23:35:48.211Z,100002.97
2023-04-01T23:40:53.240Z,100009.97
2023-04-01T23:46:01.425Z,100014.59
2023-04-01T23:51:03.895Z,100033.53
2023-04-01T23:56:07.101Z,100044.84
